CheckWX is a tool to help pilots better visualize weather data.  It is not intended as a substitute for an official pre-flight weather briefing.

21:40:36 UTC

KSNS TAF
Salinas Municipal Airport
Salinas, California, USA
KSNS 231730Z 2318/2418 12009KT P6SM BKN200 FM232000 29008KT P6SM BKN250 FM240400 12004KT P6SM SCT020 BKN150 FM241500 12005KT P6SM BKN050 OVC100

Feb-23@
18:00 UTC

Feb-23 @ 18:00 UTC

Feb-23@
20:00 UTC

Feb-23 @ 20:00 UTC

KSNS 231730Z 2318/2418 12009KT P6SM BKN200

Expired

Wind
  • 120° at 9 KTS
Cloud Levels
  • Broken at 20,000' AGL

Feb-23@
20:00 UTC

Feb-23 @ 20:00 UTC

Feb-24@
04:00 UTC

Feb-24 @ 04:00 UTC

FM232000 29008KT P6SM BKN250

From

From Standard forecast or significant change

Wind
  • 290° at 8 KTS
Cloud Levels
  • Broken at 25,000' AGL

Feb-24@
04:00 UTC

Feb-24 @ 04:00 UTC

Feb-24@
15:00 UTC

Feb-24 @ 15:00 UTC

FM240400 12004KT P6SM SCT020 BKN150

From

From Standard forecast or significant change

Wind
  • 120° at 4 KTS
Cloud Levels
  • Scattered at 2,000' AGL
  • Broken at 15,000' AGL

Feb-24@
15:00 UTC

Feb-24 @ 15:00 UTC

Feb-24@
18:00 UTC

Feb-24 @ 18:00 UTC

FM241500 12005KT P6SM BKN050 OVC100

From

From Standard forecast or significant change

Wind
  • 120° at 5 KTS
Cloud Levels
  • Broken at 5,000' AGL
  • Overcast at 10,000' AGL